Austin, Utah
Current Conditions -  °F | °C
As of 1:52 PM on Tuesday 21 Oct 2014 (Local Time) from KMLF Reporting Station
Clear Clear  
Wind Chill: 22°   Ceiling: Unl
Heat Index: 22°   Visibility: 10mi
Dew Point:   Wind: 17mph
Humidity: 31%   Direction: 220°SW
Pressure: 29.96"   Gusts: 25mph
Location:  38.6125°N, 112.081°W
Report Text: KMLF 211952Z AUTO 22015G22KT 10SM CLR 22/04 A2996 RMK AO2 SLP093 T02170039 TSNO
Loading
Personal Weather Stations






























Interactive Weather Map
Tropical Storm Tracking
New forecast layout! Learn more

10-Day Weather Forecast

Advertisements
Track Severe Weather on mobile